sensor_id;sensor_type;location;lat;lon;timestamp;P1;durP1;ratioP1;P2;durP2;ratioP2
46266;SDS011;31998;48.798;15.066;2022-08-21T00:01:23;109.43;;;31.40;;
46266;SDS011;31998;48.798;15.066;2022-08-21T00:03:51;96.10;;;31.27;;
46266;SDS011;31998;48.798;15.066;2022-08-21T00:06:16;94.87;;;30.23;;
46266;SDS011;31998;48.798;15.066;2022-08-21T00:08:42;105.10;;;32.50;;
46266;SDS011;31998;48.798;15.066;2022-08-21T00:11:08;96.63;;;29.20;;
46266;SDS011;31998;48.798;15.066;2022-08-21T00:13:34;130.43;;;32.10;;
46266;SDS011;31998;48.798;15.066;2022-08-21T00:16:00;110.53;;;29.30;;
46266;SDS011;31998;48.798;15.066;2022-08-21T00:18:26;117.37;;;32.90;;
46266;SDS011;31998;48.798;15.066;2022-08-21T00:20:51;152.30;;;35.40;;
46266;SDS011;31998;48.798;15.066;2022-08-21T00:23:17;99.63;;;32.33;;
46266;SDS011;31998;48.798;15.066;2022-08-21T00:25:43;107.47;;;34.00;;
46266;SDS011;31998;48.798;15.066;2022-08-21T00:28:10;152.03;;;35.47;;
46266;SDS011;31998;48.798;15.066;2022-08-21T00:30:37;134.97;;;34.77;;
46266;SDS011;31998;48.798;15.066;2022-08-21T00:33:04;102.13;;;31.83;;
46266;SDS011;31998;48.798;15.066;2022-08-21T00:35:32;108.37;;;33.77;;
46266;SDS011;31998;48.798;15.066;2022-08-21T00:38:02;110.93;;;29.63;;
46266;SDS011;31998;48.798;15.066;2022-08-21T00:40:31;70.77;;;26.00;;
46266;SDS011;31998;48.798;15.066;2022-08-21T00:42:58;63.23;;;24.93;;
46266;SDS011;31998;48.798;15.066;2022-08-21T00:45:26;70.97;;;27.13;;
46266;SDS011;31998;48.798;15.066;2022-08-21T00:47:52;78.40;;;28.23;;
46266;SDS011;31998;48.798;15.066;2022-08-21T00:50:20;71.90;;;27.50;;
46266;SDS011;31998;48.798;15.066;2022-08-21T00:52:46;108.13;;;28.30;;
46266;SDS011;31998;48.798;15.066;2022-08-21T00:55:12;109.53;;;30.90;;
46266;SDS011;31998;48.798;15.066;2022-08-21T00:57:42;94.87;;;30.33;;
46266;SDS011;31998;48.798;15.066;2022-08-21T01:00:13;76.47;;;27.10;;
46266;SDS011;31998;48.798;15.066;2022-08-21T01:02:42;87.70;;;28.53;;
46266;SDS011;31998;48.798;15.066;2022-08-21T01:05:08;56.53;;;26.23;;
46266;SDS011;31998;48.798;15.066;2022-08-21T01:07:35;72.30;;;28.13;;
46266;SDS011;31998;48.798;15.066;2022-08-21T01:10:00;99.67;;;31.30;;
46266;SDS011;31998;48.798;15.066;2022-08-21T01:12:26;94.07;;;31.07;;
46266;SDS011;31998;48.798;15.066;2022-08-21T01:14:51;73.57;;;28.77;;
46266;SDS011;31998;48.798;15.066;2022-08-21T01:17:17;90.67;;;30.70;;
46266;SDS011;31998;48.798;15.066;2022-08-21T01:19:44;84.00;;;30.17;;
46266;SDS011;31998;48.798;15.066;2022-08-21T01:22:10;81.97;;;30.97;;
46266;SDS011;31998;48.798;15.066;2022-08-21T01:24:35;81.40;;;29.87;;
46266;SDS011;31998;48.798;15.066;2022-08-21T01:27:01;108.97;;;32.80;;
46266;SDS011;31998;48.798;15.066;2022-08-21T01:29:45;74.27;;;30.20;;
46266;SDS011;31998;48.798;15.066;2022-08-21T01:32:22;82.00;;;30.40;;
46266;SDS011;31998;48.798;15.066;2022-08-21T01:34:48;103.90;;;30.50;;
46266;SDS011;31998;48.798;15.066;2022-08-21T01:37:15;119.33;;;31.47;;
46266;SDS011;31998;48.798;15.066;2022-08-21T01:39:42;96.10;;;28.47;;
46266;SDS011;31998;48.798;15.066;2022-08-21T01:42:08;80.40;;;25.50;;
46266;SDS011;31998;48.798;15.066;2022-08-21T01:44:34;76.80;;;24.70;;
46266;SDS011;31998;48.798;15.066;2022-08-21T01:47:01;66.00;;;28.23;;
46266;SDS011;31998;48.798;15.066;2022-08-21T01:49:32;103.73;;;28.33;;
46266;SDS011;31998;48.798;15.066;2022-08-21T01:51:58;67.73;;;27.30;;
46266;SDS011;31998;48.798;15.066;2022-08-21T01:54:24;60.17;;;26.17;;
46266;SDS011;31998;48.798;15.066;2022-08-21T01:56:50;72.37;;;28.13;;
46266;SDS011;31998;48.798;15.066;2022-08-21T01:59:17;72.57;;;29.40;;
46266;SDS011;31998;48.798;15.066;2022-08-21T02:01:43;88.13;;;32.00;;
46266;SDS011;31998;48.798;15.066;2022-08-21T02:04:09;88.47;;;30.47;;
46266;SDS011;31998;48.798;15.066;2022-08-21T02:06:35;90.00;;;28.77;;
46266;SDS011;31998;48.798;15.066;2022-08-21T02:09:03;61.70;;;26.33;;
46266;SDS011;31998;48.798;15.066;2022-08-21T02:11:29;78.57;;;28.00;;
46266;SDS011;31998;48.798;15.066;2022-08-21T02:13:55;68.23;;;28.70;;
46266;SDS011;31998;48.798;15.066;2022-08-21T02:16:20;80.47;;;27.50;;
46266;SDS011;31998;48.798;15.066;2022-08-21T02:18:46;65.57;;;26.60;;
46266;SDS011;31998;48.798;15.066;2022-08-21T02:21:12;160.03;;;33.30;;
46266;SDS011;31998;48.798;15.066;2022-08-21T02:23:37;97.93;;;29.53;;
46266;SDS011;31998;48.798;15.066;2022-08-21T02:26:04;84.13;;;26.90;;
46266;SDS011;31998;48.798;15.066;2022-08-21T02:28:31;59.13;;;25.33;;
46266;SDS011;31998;48.798;15.066;2022-08-21T02:30:58;76.27;;;27.90;;
46266;SDS011;31998;48.798;15.066;2022-08-21T02:33:23;66.13;;;26.47;;
46266;SDS011;31998;48.798;15.066;2022-08-21T02:35:49;102.17;;;29.90;;
46266;SDS011;31998;48.798;15.066;2022-08-21T02:38:18;58.10;;;26.00;;
46266;SDS011;31998;48.798;15.066;2022-08-21T02:40:47;76.67;;;25.43;;
46266;SDS011;31998;48.798;15.066;2022-08-21T02:43:14;68.90;;;26.97;;
46266;SDS011;31998;48.798;15.066;2022-08-21T02:45:41;89.53;;;28.97;;
46266;SDS011;31998;48.798;15.066;2022-08-21T02:48:09;97.60;;;30.40;;
46266;SDS011;31998;48.798;15.066;2022-08-21T02:50:38;99.03;;;30.43;;
46266;SDS011;31998;48.798;15.066;2022-08-21T02:53:10;113.70;;;31.87;;
46266;SDS011;31998;48.798;15.066;2022-08-21T02:55:41;112.80;;;32.90;;
46266;SDS011;31998;48.798;15.066;2022-08-21T02:58:12;100.47;;;34.90;;
46266;SDS011;31998;48.798;15.066;2022-08-21T03:00:39;120.70;;;37.30;;
46266;SDS011;31998;48.798;15.066;2022-08-21T03:03:05;113.23;;;35.70;;
46266;SDS011;31998;48.798;15.066;2022-08-21T03:05:31;124.10;;;38.20;;
46266;SDS011;31998;48.798;15.066;2022-08-21T03:07:59;101.00;;;34.07;;
46266;SDS011;31998;48.798;15.066;2022-08-21T03:10:27;125.70;;;37.60;;
46266;SDS011;31998;48.798;15.066;2022-08-21T03:12:53;117.37;;;36.80;;
46266;SDS011;31998;48.798;15.066;2022-08-21T03:15:20;104.30;;;36.40;;
46266;SDS011;31998;48.798;15.066;2022-08-21T03:17:48;197.07;;;41.60;;
46266;SDS011;31998;48.798;15.066;2022-08-21T03:20:16;170.07;;;39.80;;
46266;SDS011;31998;48.798;15.066;2022-08-21T03:22:43;119.37;;;37.10;;
46266;SDS011;31998;48.798;15.066;2022-08-21T03:25:08;167.50;;;39.20;;
46266;SDS011;31998;48.798;15.066;2022-08-21T03:27:35;152.70;;;40.23;;
46266;SDS011;31998;48.798;15.066;2022-08-21T03:30:03;131.90;;;39.47;;
46266;SDS011;31998;48.798;15.066;2022-08-21T03:32:30;211.93;;;43.67;;
46266;SDS011;31998;48.798;15.066;2022-08-21T03:34:56;155.20;;;42.40;;
46266;SDS011;31998;48.798;15.066;2022-08-21T03:37:23;165.70;;;44.40;;
46266;SDS011;31998;48.798;15.066;2022-08-21T03:39:49;182.90;;;44.27;;
46266;SDS011;31998;48.798;15.066;2022-08-21T03:42:15;243.23;;;44.23;;
46266;SDS011;31998;48.798;15.066;2022-08-21T03:44:40;165.50;;;40.77;;
46266;SDS011;31998;48.798;15.066;2022-08-21T03:47:06;232.97;;;47.27;;
46266;SDS011;31998;48.798;15.066;2022-08-21T03:49:31;174.60;;;41.50;;
46266;SDS011;31998;48.798;15.066;2022-08-21T03:51:57;220.17;;;47.60;;
46266;SDS011;31998;48.798;15.066;2022-08-21T03:54:23;185.37;;;42.20;;
46266;SDS011;31998;48.798;15.066;2022-08-21T03:56:48;295.13;;;47.87;;
46266;SDS011;31998;48.798;15.066;2022-08-21T03:59:14;187.03;;;40.70;;
46266;SDS011;31998;48.798;15.066;2022-08-21T04:01:39;212.70;;;43.57;;
46266;SDS011;31998;48.798;15.066;2022-08-21T04:04:15;210.17;;;43.00;;
46266;SDS011;31998;48.798;15.066;2022-08-21T04:06:40;206.70;;;42.90;;
46266;SDS011;31998;48.798;15.066;2022-08-21T04:09:06;181.20;;;41.10;;
46266;SDS011;31998;48.798;15.066;2022-08-21T04:11:31;217.10;;;43.77;;
46266;SDS011;31998;48.798;15.066;2022-08-21T04:13:57;119.00;;;35.00;;
46266;SDS011;31998;48.798;15.066;2022-08-21T04:16:22;189.50;;;42.03;;
46266;SDS011;31998;48.798;15.066;2022-08-21T04:18:47;158.17;;;39.87;;
46266;SDS011;31998;48.798;15.066;2022-08-21T04:21:13;161.13;;;41.30;;
46266;SDS011;31998;48.798;15.066;2022-08-21T04:23:38;135.20;;;37.47;;
46266;SDS011;31998;48.798;15.066;2022-08-21T04:26:04;140.73;;;37.37;;
46266;SDS011;31998;48.798;15.066;2022-08-21T04:28:31;150.87;;;40.90;;
46266;SDS011;31998;48.798;15.066;2022-08-21T04:30:56;176.67;;;40.87;;
46266;SDS011;31998;48.798;15.066;2022-08-21T04:33:22;171.27;;;42.47;;
46266;SDS011;31998;48.798;15.066;2022-08-21T04:35:48;159.30;;;42.43;;
46266;SDS011;31998;48.798;15.066;2022-08-21T04:38:15;151.53;;;39.17;;
46266;SDS011;31998;48.798;15.066;2022-08-21T04:40:40;194.83;;;43.57;;
46266;SDS011;31998;48.798;15.066;2022-08-21T04:43:08;169.67;;;41.80;;
46266;SDS011;31998;48.798;15.066;2022-08-21T04:45:36;188.33;;;41.97;;
46266;SDS011;31998;48.798;15.066;2022-08-21T04:48:06;156.23;;;41.30;;
46266;SDS011;31998;48.798;15.066;2022-08-21T04:50:38;201.40;;;43.37;;
46266;SDS011;31998;48.798;15.066;2022-08-21T04:53:08;204.40;;;41.53;;
46266;SDS011;31998;48.798;15.066;2022-08-21T04:55:38;163.57;;;42.27;;
46266;SDS011;31998;48.798;15.066;2022-08-21T04:58:07;164.43;;;42.50;;
46266;SDS011;31998;48.798;15.066;2022-08-21T05:00:36;172.23;;;40.73;;
46266;SDS011;31998;48.798;15.066;2022-08-21T05:03:02;158.80;;;40.97;;
46266;SDS011;31998;48.798;15.066;2022-08-21T05:05:30;162.87;;;41.60;;
46266;SDS011;31998;48.798;15.066;2022-08-21T05:07:55;187.57;;;43.80;;
46266;SDS011;31998;48.798;15.066;2022-08-21T05:10:24;170.10;;;42.97;;
46266;SDS011;31998;48.798;15.066;2022-08-21T05:12:50;187.97;;;42.70;;
46266;SDS011;31998;48.798;15.066;2022-08-21T05:15:16;159.67;;;40.07;;
46266;SDS011;31998;48.798;15.066;2022-08-21T05:17:42;207.13;;;40.07;;
46266;SDS011;31998;48.798;15.066;2022-08-21T05:20:09;137.93;;;37.20;;
46266;SDS011;31998;48.798;15.066;2022-08-21T05:22:36;144.47;;;38.10;;
46266;SDS011;31998;48.798;15.066;2022-08-21T05:25:02;131.30;;;38.33;;
46266;SDS011;31998;48.798;15.066;2022-08-21T05:27:28;136.37;;;35.80;;
46266;SDS011;31998;48.798;15.066;2022-08-21T05:29:55;119.80;;;36.37;;
46266;SDS011;31998;48.798;15.066;2022-08-21T05:32:21;101.50;;;34.60;;
46266;SDS011;31998;48.798;15.066;2022-08-21T05:34:46;165.73;;;40.27;;
46266;SDS011;31998;48.798;15.066;2022-08-21T05:37:12;119.70;;;37.53;;
46266;SDS011;31998;48.798;15.066;2022-08-21T05:39:37;138.43;;;36.67;;
46266;SDS011;31998;48.798;15.066;2022-08-21T05:42:03;134.80;;;37.40;;
46266;SDS011;31998;48.798;15.066;2022-08-21T05:44:29;116.83;;;38.00;;
46266;SDS011;31998;48.798;15.066;2022-08-21T05:46:54;141.70;;;39.97;;
46266;SDS011;31998;48.798;15.066;2022-08-21T05:49:19;160.30;;;40.10;;
46266;SDS011;31998;48.798;15.066;2022-08-21T05:51:45;161.40;;;40.47;;
46266;SDS011;31998;48.798;15.066;2022-08-21T05:54:10;195.03;;;41.60;;
46266;SDS011;31998;48.798;15.066;2022-08-21T05:56:36;129.03;;;38.50;;
46266;SDS011;31998;48.798;15.066;2022-08-21T05:59:02;127.53;;;37.20;;
46266;SDS011;31998;48.798;15.066;2022-08-21T06:01:28;153.70;;;40.30;;
46266;SDS011;31998;48.798;15.066;2022-08-21T06:03:53;128.20;;;36.90;;
46266;SDS011;31998;48.798;15.066;2022-08-21T06:06:19;156.83;;;40.23;;
46266;SDS011;31998;48.798;15.066;2022-08-21T06:08:44;158.60;;;39.23;;
46266;SDS011;31998;48.798;15.066;2022-08-21T06:11:10;162.40;;;39.47;;
46266;SDS011;31998;48.798;15.066;2022-08-21T06:13:35;103.37;;;35.37;;
46266;SDS011;31998;48.798;15.066;2022-08-21T06:18:32;117.83;;;34.73;;
46266;SDS011;31998;48.798;15.066;2022-08-21T06:20:57;132.30;;;35.93;;
46266;SDS011;31998;48.798;15.066;2022-08-21T06:23:23;156.77;;;37.20;;
46266;SDS011;31998;48.798;15.066;2022-08-21T06:25:48;174.23;;;39.60;;
46266;SDS011;31998;48.798;15.066;2022-08-21T06:28:13;130.43;;;33.87;;
46266;SDS011;31998;48.798;15.066;2022-08-21T06:30:39;159.43;;;37.23;;
46266;SDS011;31998;48.798;15.066;2022-08-21T06:33:04;131.37;;;35.67;;
46266;SDS011;31998;48.798;15.066;2022-08-21T06:35:32;134.30;;;36.37;;
46266;SDS011;31998;48.798;15.066;2022-08-21T06:37:58;119.77;;;34.87;;
46266;SDS011;31998;48.798;15.066;2022-08-21T06:40:24;135.40;;;35.33;;
46266;SDS011;31998;48.798;15.066;2022-08-21T06:42:51;113.13;;;34.17;;
46266;SDS011;31998;48.798;15.066;2022-08-21T06:45:17;139.83;;;34.67;;
46266;SDS011;31998;48.798;15.066;2022-08-21T06:47:42;101.40;;;31.37;;
46266;SDS011;31998;48.798;15.066;2022-08-21T06:50:08;99.00;;;32.33;;
46266;SDS011;31998;48.798;15.066;2022-08-21T06:52:37;99.17;;;31.10;;
46266;SDS011;31998;48.798;15.066;2022-08-21T06:55:09;72.97;;;30.60;;
46266;SDS011;31998;48.798;15.066;2022-08-21T06:57:37;81.10;;;32.07;;
46266;SDS011;31998;48.798;15.066;2022-08-21T07:00:04;85.07;;;31.70;;
46266;SDS011;31998;48.798;15.066;2022-08-21T07:02:30;162.10;;;34.77;;
46266;SDS011;31998;48.798;15.066;2022-08-21T07:04:55;81.27;;;30.53;;
46266;SDS011;31998;48.798;15.066;2022-08-21T07:07:21;100.57;;;33.60;;
46266;SDS011;31998;48.798;15.066;2022-08-21T07:09:46;138.70;;;36.00;;
46266;SDS011;31998;48.798;15.066;2022-08-21T07:12:12;115.60;;;32.97;;
46266;SDS011;31998;48.798;15.066;2022-08-21T07:14:37;89.83;;;32.60;;
46266;SDS011;31998;48.798;15.066;2022-08-21T07:17:03;121.00;;;32.63;;
46266;SDS011;31998;48.798;15.066;2022-08-21T07:19:28;136.40;;;31.43;;
46266;SDS011;31998;48.798;15.066;2022-08-21T07:21:58;108.87;;;32.47;;
46266;SDS011;31998;48.798;15.066;2022-08-21T07:24:26;94.10;;;28.00;;
46266;SDS011;31998;48.798;15.066;2022-08-21T07:26:52;73.07;;;27.83;;
46266;SDS011;31998;48.798;15.066;2022-08-21T07:29:17;97.97;;;28.90;;
46266;SDS011;31998;48.798;15.066;2022-08-21T07:31:43;107.77;;;31.27;;
46266;SDS011;31998;48.798;15.066;2022-08-21T07:34:09;97.40;;;29.77;;
46266;SDS011;31998;48.798;15.066;2022-08-21T07:36:35;75.40;;;26.20;;
46266;SDS011;31998;48.798;15.066;2022-08-21T07:39:00;75.67;;;29.53;;
46266;SDS011;31998;48.798;15.066;2022-08-21T07:41:27;84.73;;;27.20;;
46266;SDS011;31998;48.798;15.066;2022-08-21T07:43:55;81.83;;;29.03;;
46266;SDS011;31998;48.798;15.066;2022-08-21T07:46:22;60.83;;;24.57;;
46266;SDS011;31998;48.798;15.066;2022-08-21T07:48:49;82.80;;;25.80;;
46266;SDS011;31998;48.798;15.066;2022-08-21T07:51:15;45.23;;;22.20;;
46266;SDS011;31998;48.798;15.066;2022-08-21T07:53:41;68.50;;;24.30;;
46266;SDS011;31998;48.798;15.066;2022-08-21T07:56:12;67.80;;;24.13;;
46266;SDS011;31998;48.798;15.066;2022-08-21T07:58:37;54.07;;;21.93;;
46266;SDS011;31998;48.798;15.066;2022-08-21T08:01:03;30.80;;;17.03;;
46266;SDS011;31998;48.798;15.066;2022-08-21T08:03:30;37.83;;;18.50;;
46266;SDS011;31998;48.798;15.066;2022-08-21T08:05:56;29.00;;;16.43;;
46266;SDS011;31998;48.798;15.066;2022-08-21T08:08:22;45.40;;;20.17;;
46266;SDS011;31998;48.798;15.066;2022-08-21T08:10:48;30.30;;;17.37;;
46266;SDS011;31998;48.798;15.066;2022-08-21T08:13:14;30.27;;;16.90;;
46266;SDS011;31998;48.798;15.066;2022-08-21T08:15:40;28.97;;;15.07;;
46266;SDS011;31998;48.798;15.066;2022-08-21T08:18:05;23.97;;;16.60;;
46266;SDS011;31998;48.798;15.066;2022-08-21T08:20:31;26.53;;;15.07;;
46266;SDS011;31998;48.798;15.066;2022-08-21T08:22:56;31.27;;;17.60;;
46266;SDS011;31998;48.798;15.066;2022-08-21T08:25:22;20.60;;;14.30;;
46266;SDS011;31998;48.798;15.066;2022-08-21T08:27:49;14.23;;;12.67;;
46266;SDS011;31998;48.798;15.066;2022-08-21T08:30:15;19.70;;;13.77;;
46266;SDS011;31998;48.798;15.066;2022-08-21T08:32:43;19.90;;;13.93;;
46266;SDS011;31998;48.798;15.066;2022-08-21T08:35:09;20.93;;;15.70;;
46266;SDS011;31998;48.798;15.066;2022-08-21T08:37:36;21.27;;;14.90;;
46266;SDS011;31998;48.798;15.066;2022-08-21T08:40:03;24.17;;;15.67;;
46266;SDS011;31998;48.798;15.066;2022-08-21T08:42:30;33.10;;;17.40;;
46266;SDS011;31998;48.798;15.066;2022-08-21T08:45:05;44.60;;;18.70;;
46266;SDS011;31998;48.798;15.066;2022-08-21T08:47:35;28.83;;;16.40;;
46266;SDS011;31998;48.798;15.066;2022-08-21T08:52:54;33.63;;;18.87;;
46266;SDS011;31998;48.798;15.066;2022-08-21T08:55:32;23.73;;;16.50;;
46266;SDS011;31998;48.798;15.066;2022-08-21T08:58:00;32.97;;;17.30;;
46266;SDS011;31998;48.798;15.066;2022-08-21T09:00:27;34.17;;;17.27;;
46266;SDS011;31998;48.798;15.066;2022-08-21T09:02:55;29.60;;;16.40;;
46266;SDS011;31998;48.798;15.066;2022-08-21T09:05:33;16.53;;;12.73;;
46266;SDS011;31998;48.798;15.066;2022-08-21T09:08:17;29.00;;;15.97;;
46266;SDS011;31998;48.798;15.066;2022-08-21T09:14:16;22.70;;;14.50;;
46266;SDS011;31998;48.798;15.066;2022-08-21T09:16:55;21.30;;;14.80;;
46266;SDS011;31998;48.798;15.066;2022-08-21T09:19:55;27.83;;;16.80;;
46266;SDS011;31998;48.798;15.066;2022-08-21T09:22:47;19.27;;;14.67;;
46266;SDS011;31998;48.798;15.066;2022-08-21T09:25:24;22.97;;;14.90;;
46266;SDS011;31998;48.798;15.066;2022-08-21T09:27:52;12.60;;;11.40;;
46266;SDS011;31998;48.798;15.066;2022-08-21T09:30:19;14.50;;;10.70;;
46266;SDS011;31998;48.798;15.066;2022-08-21T09:32:51;15.47;;;12.23;;
46266;SDS011;31998;48.798;15.066;2022-08-21T09:35:18;13.23;;;11.83;;
46266;SDS011;31998;48.798;15.066;2022-08-21T09:37:48;14.70;;;11.50;;
46266;SDS011;31998;48.798;15.066;2022-08-21T09:40:30;13.70;;;12.00;;
46266;SDS011;31998;48.798;15.066;2022-08-21T09:45:34;11.00;;;9.80;;
46266;SDS011;31998;48.798;15.066;2022-08-21T09:48:13;10.30;;;9.33;;
46266;SDS011;31998;48.798;15.066;2022-08-21T09:50:43;10.73;;;9.10;;
46266;SDS011;31998;48.798;15.066;2022-08-21T09:53:17;9.47;;;8.57;;
46266;SDS011;31998;48.798;15.066;2022-08-21T09:58:37;13.20;;;9.90;;
46266;SDS011;31998;48.798;15.066;2022-08-21T10:01:05;11.20;;;10.10;;
46266;SDS011;31998;48.798;15.066;2022-08-21T10:03:37;8.60;;;7.90;;
46266;SDS011;31998;48.798;15.066;2022-08-21T10:06:04;11.17;;;10.23;;
46266;SDS011;31998;48.798;15.066;2022-08-21T10:08:34;21.40;;;10.30;;
46266;SDS011;31998;48.798;15.066;2022-08-21T10:11:19;9.70;;;8.80;;
46266;SDS011;31998;48.798;15.066;2022-08-21T10:16:37;11.10;;;10.10;;
46266;SDS011;31998;48.798;15.066;2022-08-21T10:19:13;9.30;;;8.60;;
46266;SDS011;31998;48.798;15.066;2022-08-21T10:35:10;9.53;;;6.93;;
46266;SDS011;31998;48.798;15.066;2022-08-21T10:37:57;8.17;;;7.57;;
46266;SDS011;31998;48.798;15.066;2022-08-21T10:40:42;7.13;;;6.60;;
46266;SDS011;31998;48.798;15.066;2022-08-21T10:43:29;6.60;;;6.30;;
46266;SDS011;31998;48.798;15.066;2022-08-21T10:46:07;10.90;;;6.07;;
46266;SDS011;31998;48.798;15.066;2022-08-21T10:48:35;8.37;;;7.57;;
46266;SDS011;31998;48.798;15.066;2022-08-21T10:51:28;6.53;;;6.10;;
46266;SDS011;31998;48.798;15.066;2022-08-21T10:56:38;7.97;;;7.27;;
46266;SDS011;31998;48.798;15.066;2022-08-21T11:02:05;8.00;;;7.50;;
46266;SDS011;31998;48.798;15.066;2022-08-21T11:07:32;7.20;;;6.70;;
46266;SDS011;31998;48.798;15.066;2022-08-21T11:10:03;7.30;;;7.00;;
46266;SDS011;31998;48.798;15.066;2022-08-21T11:12:38;7.07;;;6.53;;
46266;SDS011;31998;48.798;15.066;2022-08-21T11:15:23;6.83;;;6.33;;
46266;SDS011;31998;48.798;15.066;2022-08-21T11:17:52;6.37;;;5.90;;
46266;SDS011;31998;48.798;15.066;2022-08-21T11:25:36;9.80;;;7.00;;
46266;SDS011;31998;48.798;15.066;2022-08-21T11:28:06;6.33;;;5.97;;
46266;SDS011;31998;48.798;15.066;2022-08-21T11:35:39;8.33;;;6.23;;
46266;SDS011;31998;48.798;15.066;2022-08-21T11:38:15;7.80;;;5.90;;
46266;SDS011;31998;48.798;15.066;2022-08-21T11:49:44;6.43;;;6.03;;
46266;SDS011;31998;48.798;15.066;2022-08-21T11:54:46;6.10;;;5.90;;
46266;SDS011;31998;48.798;15.066;2022-08-21T11:57:46;6.90;;;6.00;;
46266;SDS011;31998;48.798;15.066;2022-08-21T12:00:11;5.33;;;5.00;;
46266;SDS011;31998;48.798;15.066;2022-08-21T12:02:47;5.67;;;5.37;;
46266;SDS011;31998;48.798;15.066;2022-08-21T12:05:53;6.30;;;5.90;;
46266;SDS011;31998;48.798;15.066;2022-08-21T12:11:23;5.77;;;5.37;;
46266;SDS011;31998;48.798;15.066;2022-08-21T12:16:31;6.20;;;5.70;;
46266;SDS011;31998;48.798;15.066;2022-08-21T12:19:14;5.40;;;4.90;;
46266;SDS011;31998;48.798;15.066;2022-08-21T12:29:25;4.60;;;4.23;;
46266;SDS011;31998;48.798;15.066;2022-08-21T12:31:58;4.93;;;4.53;;
46266;SDS011;31998;48.798;15.066;2022-08-21T12:34:45;4.40;;;4.20;;
46266;SDS011;31998;48.798;15.066;2022-08-21T12:40:28;5.57;;;5.10;;
46266;SDS011;31998;48.798;15.066;2022-08-21T12:43:15;12.50;;;4.67;;
46266;SDS011;31998;48.798;15.066;2022-08-21T12:45:47;4.40;;;4.20;;
46266;SDS011;31998;48.798;15.066;2022-08-21T12:50:57;5.07;;;4.70;;
46266;SDS011;31998;48.798;15.066;2022-08-21T12:53:35;4.40;;;4.10;;
46266;SDS011;31998;48.798;15.066;2022-08-21T12:56:15;3.97;;;3.77;;
46266;SDS011;31998;48.798;15.066;2022-08-21T12:59:00;5.20;;;4.83;;
46266;SDS011;31998;48.798;15.066;2022-08-21T13:01:36;4.50;;;4.30;;
46266;SDS011;31998;48.798;15.066;2022-08-21T13:04:07;4.57;;;4.13;;
46266;SDS011;31998;48.798;15.066;2022-08-21T13:06:40;3.90;;;3.70;;
46266;SDS011;31998;48.798;15.066;2022-08-21T13:09:10;4.57;;;4.00;;
46266;SDS011;31998;48.798;15.066;2022-08-21T13:11:39;4.37;;;3.97;;
46266;SDS011;31998;48.798;15.066;2022-08-21T13:14:05;4.63;;;4.33;;
46266;SDS011;31998;48.798;15.066;2022-08-21T13:16:38;4.40;;;4.00;;
46266;SDS011;31998;48.798;15.066;2022-08-21T13:19:06;5.80;;;3.63;;
46266;SDS011;31998;48.798;15.066;2022-08-21T13:21:40;5.00;;;4.70;;
46266;SDS011;31998;48.798;15.066;2022-08-21T13:24:12;4.67;;;4.27;;
46266;SDS011;31998;48.798;15.066;2022-08-21T13:26:39;4.60;;;4.20;;
46266;SDS011;31998;48.798;15.066;2022-08-21T13:29:11;3.80;;;3.60;;
46266;SDS011;31998;48.798;15.066;2022-08-21T13:31:40;6.93;;;4.20;;
46266;SDS011;31998;48.798;15.066;2022-08-21T13:34:08;5.30;;;3.33;;
46266;SDS011;31998;48.798;15.066;2022-08-21T13:36:36;4.37;;;4.17;;
46266;SDS011;31998;48.798;15.066;2022-08-21T13:39:06;7.10;;;4.00;;
46266;SDS011;31998;48.798;15.066;2022-08-21T13:41:35;4.47;;;4.20;;
46266;SDS011;31998;48.798;15.066;2022-08-21T13:44:04;3.80;;;3.53;;
46266;SDS011;31998;48.798;15.066;2022-08-21T13:46:38;3.73;;;3.57;;
46266;SDS011;31998;48.798;15.066;2022-08-21T13:49:05;4.23;;;4.00;;
46266;SDS011;31998;48.798;15.066;2022-08-21T13:51:32;3.80;;;3.53;;
46266;SDS011;31998;48.798;15.066;2022-08-21T13:53:58;5.50;;;4.40;;
46266;SDS011;31998;48.798;15.066;2022-08-21T13:56:28;4.90;;;4.60;;
46266;SDS011;31998;48.798;15.066;2022-08-21T13:58:56;5.33;;;4.07;;
46266;SDS011;31998;48.798;15.066;2022-08-21T14:03:59;4.87;;;4.40;;
46266;SDS011;31998;48.798;15.066;2022-08-21T14:06:32;4.43;;;4.10;;
46266;SDS011;31998;48.798;15.066;2022-08-21T14:09:00;4.43;;;4.03;;
46266;SDS011;31998;48.798;15.066;2022-08-21T14:11:33;3.70;;;3.50;;
46266;SDS011;31998;48.798;15.066;2022-08-21T14:14:02;4.00;;;3.70;;
46266;SDS011;31998;48.798;15.066;2022-08-21T14:16:42;3.93;;;3.77;;
46266;SDS011;31998;48.798;15.066;2022-08-21T14:19:17;4.73;;;4.27;;
46266;SDS011;31998;48.798;15.066;2022-08-21T14:21:50;4.17;;;3.90;;
46266;SDS011;31998;48.798;15.066;2022-08-21T14:27:01;10.00;;;3.80;;
46266;SDS011;31998;48.798;15.066;2022-08-21T14:29:32;4.33;;;4.13;;
46266;SDS011;31998;48.798;15.066;2022-08-21T14:32:07;5.80;;;4.10;;
46266;SDS011;31998;48.798;15.066;2022-08-21T14:34:45;3.87;;;3.67;;
46266;SDS011;31998;48.798;15.066;2022-08-21T14:37:11;4.50;;;4.23;;
46266;SDS011;31998;48.798;15.066;2022-08-21T14:39:36;4.10;;;3.77;;
46266;SDS011;31998;48.798;15.066;2022-08-21T14:42:02;5.33;;;3.60;;
46266;SDS011;31998;48.798;15.066;2022-08-21T14:44:28;4.17;;;3.90;;
46266;SDS011;31998;48.798;15.066;2022-08-21T14:46:53;3.93;;;3.40;;
46266;SDS011;31998;48.798;15.066;2022-08-21T14:49:21;4.60;;;4.30;;
46266;SDS011;31998;48.798;15.066;2022-08-21T14:51:48;5.33;;;4.90;;
46266;SDS011;31998;48.798;15.066;2022-08-21T14:54:18;4.47;;;4.27;;
46266;SDS011;31998;48.798;15.066;2022-08-21T14:56:43;4.55;;;4.05;;
46266;SDS011;31998;48.798;15.066;2022-08-21T14:59:09;4.43;;;4.17;;
46266;SDS011;31998;48.798;15.066;2022-08-21T15:01:35;3.93;;;3.73;;
46266;SDS011;31998;48.798;15.066;2022-08-21T15:04:02;4.00;;;3.70;;
46266;SDS011;31998;48.798;15.066;2022-08-21T15:06:27;3.67;;;3.57;;
46266;SDS011;31998;48.798;15.066;2022-08-21T15:08:53;6.07;;;4.57;;
46266;SDS011;31998;48.798;15.066;2022-08-21T15:11:19;3.37;;;3.20;;
46266;SDS011;31998;48.798;15.066;2022-08-21T15:13:46;3.83;;;3.30;;
46266;SDS011;31998;48.798;15.066;2022-08-21T15:16:14;3.40;;;3.10;;
46266;SDS011;31998;48.798;15.066;2022-08-21T15:18:40;5.83;;;4.57;;
46266;SDS011;31998;48.798;15.066;2022-08-21T15:21:07;4.07;;;3.43;;
46266;SDS011;31998;48.798;15.066;2022-08-21T15:23:32;4.30;;;4.10;;
46266;SDS011;31998;48.798;15.066;2022-08-21T15:25:58;4.23;;;4.03;;
46266;SDS011;31998;48.798;15.066;2022-08-21T15:28:24;4.43;;;4.27;;
46266;SDS011;31998;48.798;15.066;2022-08-21T15:30:49;4.23;;;4.13;;
46266;SDS011;31998;48.798;15.066;2022-08-21T15:33:16;5.43;;;5.00;;
46266;SDS011;31998;48.798;15.066;2022-08-21T15:35:43;6.37;;;5.80;;
46266;SDS011;31998;48.798;15.066;2022-08-21T15:38:08;5.97;;;5.43;;
46266;SDS011;31998;48.798;15.066;2022-08-21T15:40:34;6.80;;;6.20;;
46266;SDS011;31998;48.798;15.066;2022-08-21T15:43:02;6.13;;;5.80;;
46266;SDS011;31998;48.798;15.066;2022-08-21T15:45:29;8.67;;;7.40;;